.
WxDataArchive / Data Records for 2006-11-09
2006-11-08 November 2006 2006-11-10

Data Records for Thursday, 09 November 2006

Time	Temp	Chill	HIndex	Humid	Dewpt	 Wind 	HiWind	WindDir	Rain 	Barom 
-----	----	-----	------	-----	-----	------	------	-------	-----	----- 
00:00	49.5	49.5	49.5	86	45.5	1	5	248	0.00	29.615 
00:05	49.6	49.6	49.6	86	45.6	1	5	248	0.00	29.615 
00:10	49.6	49.6	49.6	85	45.3	1	5	248	0.00	29.615 
00:15	49.8	49.8	49.8	85	45.5	1	3	248	0.00	29.612 
00:20	49.8	49.8	49.8	85	45.5	1	4	248	0.00	29.612 
00:25	49.9	49.9	49.9	85	45.6	2	4	248	0.00	29.612 
00:30	50.1	50.1	50.1	84	45.5	2	5	248	0.00	29.615 
00:35	50.1	50.1	50.1	84	45.5	2	5	248	0.00	29.615 
00:40	49.9	49.9	49.9	84	45.3	1	5	248	0.00	29.615 
00:45	49.9	49.9	49.9	84	45.3	1	3	248	0.00	29.608 
00:50	49.8	49.8	49.8	84	45.2	1	4	248	0.00	29.608 
00:55	49.8	49.8	49.8	84	45.2	2	6	248	0.00	29.608 
01:00	49.6	49.6	49.6	85	45.3	2	5	248	0.00	29.601 
01:05	49.5	49.5	49.5	85	45.2	1	3	248	0.00	29.601 
01:10	49.4	49.4	49.4	85	45.1	2	7	248	0.00	29.601 
01:15	49.2	49.2	49.2	85	44.9	1	4	248	0.00	29.599 
01:20	49.1	49.1	49.1	86	45.1	2	5	248	0.00	29.599 
01:25	48.9	48.9	48.9	86	44.9	1	5	248	0.00	29.599 
01:30	48.8	48.8	48.8	87	45.1	2	5	248	0.00	29.599 
01:35	48.6	48.6	48.6	87	44.9	2	4	248	0.00	29.599 
01:40	48.6	48.6	48.6	87	44.9	2	6	248	0.00	29.599 
01:45	48.5	48.5	48.5	87	44.8	1	3	248	0.00	29.594 
01:50	48.3	48.3	48.3	88	44.9	1	4	248	0.00	29.594 
01:55	48.3	48.3	48.3	88	44.9	2	6	248	0.00	29.594 
02:00	48.2	48.2	48.2	88	44.8	2	5	248	0.00	29.594 
02:05	48.2	48.2	48.2	88	44.8	2	5	248	0.00	29.594 
02:10	48.2	48.2	48.2	88	44.8	1	5	225	0.00	29.594 
02:15	48.2	48.2	48.2	88	44.8	2	5	248	0.00	29.596 
02:20	48.2	48.2	48.2	88	44.8	1	5	248	0.00	29.596 
02:25	48.2	48.2	48.2	88	44.8	1	5	248	0.00	29.596 
02:30	48.2	48.2	48.2	89	45.1	1	5	248	0.00	29.589 
02:35	48.2	48.2	48.2	89	45.1	2	5	248	0.00	29.589 
02:40	48.2	48.2	48.2	89	45.1	1	4	248	0.00	29.589 
02:45	48.2	48.2	48.2	89	45.1	1	3	270	0.00	29.590 
02:50	48.2	48.2	48.2	89	45.1	2	4	248	0.00	29.590 
02:55	48.2	48.2	48.2	89	45.1	2	5	248	0.00	29.590 
03:00	48.2	48.2	48.2	89	45.1	1	4	248	0.00	29.587 
03:05	48.2	48.2	48.2	89	45.1	1	4	248	0.00	29.587 
03:10	48.0	48.0	48.0	89	44.9	2	4	248	0.00	29.587 
03:15	48.0	48.0	48.0	89	44.9	2	4	248	0.00	29.587 
03:20	48.0	48.0	48.0	90	45.2	1	4	248	0.00	29.587 
03:25	48.0	48.0	48.0	90	45.2	1	3	225	0.00	29.587 
03:30	48.0	48.0	48.0	90	45.2	1	7	248	0.00	29.588 
03:35	48.0	48.0	48.0	90	45.2	0	3	248	0.00	29.588 
03:40	48.0	48.0	48.0	90	45.2	1	3	248	0.00	29.588 
03:45	48.0	48.0	48.0	90	45.2	1	3	248	0.00	29.587 
03:50	47.9	47.9	47.9	90	45.1	1	2	248	0.00	29.587 
03:55	47.9	47.9	47.9	90	45.1	1	3	248	0.00	29.587 
04:00	47.9	47.9	47.9	90	45.1	0	4	270	0.00	29.592 
04:05	47.7	47.7	47.7	91	45.2	0	3	270	0.00	29.592 
04:10	47.7	47.7	47.7	91	45.2	1	3	248	0.00	29.592 
04:15	47.7	47.7	47.7	91	45.2	1	3	248	0.00	29.590 
04:20	47.7	47.7	47.7	91	45.2	1	3	248	0.00	29.590 
04:25	47.7	47.7	47.7	91	45.2	1	4	248	0.00	29.590 
04:30	47.7	47.7	47.7	91	45.2	1	4	248	0.00	29.587 
04:35	47.7	47.7	47.7	91	45.2	1	4	248	0.00	29.587 
04:40	47.9	47.9	47.9	91	45.4	1	4	248	0.00	29.587 
04:45	47.7	47.7	47.7	91	45.2	1	3	248	0.00	29.587 
04:50	47.7	47.7	47.7	91	45.2	1	3	248	0.00	29.587 
04:55	47.7	47.7	47.7	91	45.2	1	3	248	0.00	29.587 
05:00	47.7	47.7	47.7	92	45.5	1	4	248	0.00	29.585 
05:05	47.7	47.7	47.7	92	45.5	1	4	248	0.00	29.585 
05:10	47.9	47.9	47.9	92	45.7	1	5	248	0.00	29.585 
05:15	47.9	47.9	47.9	92	45.7	1	4	248	0.00	29.584 
05:20	48.0	48.0	48.0	92	45.8	1	5	248	0.00	29.584 
05:25	48.0	48.0	48.0	91	45.5	1	6	248	0.00	29.584 
05:30	48.0	48.0	48.0	91	45.5	1	4	248	0.00	29.583 
05:35	48.2	48.2	48.2	91	45.7	1	4	248	0.00	29.583 
05:40	48.0	48.0	48.0	91	45.5	1	4	225	0.00	29.583 
05:45	48.2	48.2	48.2	91	45.7	2	9	248	0.00	29.584 
05:50	48.2	48.2	48.2	91	45.7	2	6	248	0.00	29.584 
05:55	48.3	48.3	48.3	91	45.8	1	4	248	0.00	29.584 
06:00	48.5	48.5	48.5	91	46.0	2	7	248	0.00	29.589 
06:05	48.5	48.5	48.5	91	46.0	2	4	248	0.00	29.589 
06:10	48.6	48.6	48.6	90	45.8	2	6	248	0.00	29.589 
06:15	48.6	48.6	48.6	90	45.8	2	6	248	0.00	29.591 
06:20	48.8	48.8	48.8	90	46.0	2	6	248	0.00	29.591 
06:25	48.8	48.8	48.8	90	46.0	2	5	248	0.00	29.591 
06:30	48.9	48.9	48.9	90	46.1	1	4	270	0.00	29.590 
06:35	49.1	49.1	49.1	90	46.3	3	6	248	0.00	29.590 
06:40	49.2	49.2	49.2	89	46.1	3	6	248	0.00	29.590 
06:45	49.4	49.4	49.4	89	46.3	3	9	248	0.00	29.597 
06:50	49.2	49.2	49.2	89	46.1	2	5	248	0.00	29.597 
06:55	49.2	49.2	49.2	89	46.1	2	4	248	0.00	29.597 
07:00	49.2	49.2	49.2	89	46.1	2	7	248	0.00	29.596 
07:05	49.2	49.2	49.2	89	46.1	2	5	248	0.00	29.596 
07:10	49.1	49.1	49.1	89	46.0	2	6	248	0.00	29.596 
07:15	49.1	49.1	49.1	89	46.0	2	5	225	0.00	29.601 
07:20	49.1	49.1	49.1	89	46.0	1	3	248	0.00	29.601 
07:25	49.1	49.1	49.1	89	46.0	1	4	248	0.00	29.601 
07:30	49.1	49.1	49.1	90	46.3	2	6	248	0.00	29.603 
07:35	49.1	49.1	49.1	90	46.3	2	4	225	0.00	29.603 
07:40	49.2	49.2	49.2	90	46.4	2	5	248	0.00	29.603 
07:45	49.2	49.2	49.2	90	46.4	2	5	248	0.00	29.603 
07:50	49.2	49.2	49.2	90	46.4	1	4	248	0.00	29.603 
07:55	49.4	49.4	49.4	90	46.6	1	5	225	0.00	29.603 
08:00	49.5	49.5	49.5	89	46.4	2	7	248	0.00	29.603 
08:05	49.6	49.6	49.6	89	46.5	1	3	248	0.00	29.603 
08:10	49.8	49.8	49.8	89	46.7	3	6	248	0.00	29.603 
08:15	50.1	50.1	50.1	88	46.7	2	6	248	0.00	29.604 
08:20	50.4	50.4	50.4	88	47.0	2	5	248	0.00	29.604 
08:25	50.5	50.5	50.5	88	47.1	2	6	248	0.00	29.604 
08:30	50.8	50.8	50.8	87	47.1	2	9	248	0.00	29.615 
08:35	51.0	51.0	51.0	87	47.3	3	9	248	0.00	29.615 
08:40	51.3	51.3	51.3	86	47.3	2	6	248	0.00	29.615 
08:45	51.4	51.4	51.4	86	47.4	3	6	270	0.00	29.620 
08:50	51.7	51.7	51.7	86	47.6	2	5	248	0.00	29.620 
08:55	52.0	52.0	52.0	85	47.6	3	7	248	0.00	29.620 
09:00	52.3	52.3	52.3	85	47.9	3	7	248	0.00	29.618 
09:05	52.6	52.6	52.6	84	47.9	3	7	248	0.00	29.618 
09:10	53.1	53.1	53.1	84	48.4	3	7	248	0.00	29.618 
09:15	53.3	53.3	53.3	83	48.3	2	6	248	0.00	29.621 
09:20	53.8	53.8	53.8	82	48.4	2	5	248	0.00	29.621 
09:25	54.1	54.1	54.1	82	48.7	3	6	270	0.00	29.621 
09:30	54.4	54.4	54.4	81	48.7	3	6	248	0.00	29.616 
09:35	54.5	54.5	54.5	81	48.8	3	9	248	0.00	29.616 
09:40	54.7	54.7	54.7	81	49.0	3	9	248	0.00	29.616 
09:45	55.0	55.0	55.0	80	48.9	4	10	270	0.00	29.619 
09:50	55.1	55.1	55.1	80	49.0	4	10	248	0.00	29.619 
09:55	55.3	55.3	55.3	80	49.2	4	7	248	0.00	29.619 
10:00	55.6	55.6	55.6	79	49.2	4	9	248	0.00	29.626 
10:05	55.7	55.7	55.7	80	49.6	4	10	248	0.00	29.626 
10:10	56.3	56.3	56.3	80	50.2	2	10	248	0.00	29.626 
10:15	56.7	56.7	56.7	79	50.3	3	11	270	0.00	29.620 
10:20	57.0	57.0	57.0	78	50.2	4	11	248	0.00	29.620 
10:25	57.5	57.5	57.5	77	50.3	3	12	248	0.00	29.620 
10:30	57.8	57.8	57.8	77	50.6	4	7	248	0.00	29.623 
10:35	58.0	58.0	58.0	76	50.5	4	7	270	0.00	29.623 
10:40	58.3	58.3	58.3	75	50.4	3	6	270	0.00	29.623 
10:45	58.6	58.6	58.6	75	50.7	2	6	248	0.00	29.625 
10:50	58.9	58.9	58.9	75	51.0	3	11	248	0.00	29.625 
10:55	58.9	58.9	58.9	75	51.0	4	7	270	0.00	29.625 
11:00	58.7	58.7	58.7	76	51.2	4	12	248	0.00	29.625 
11:05	59.0	59.0	59.0	76	51.4	2	6	248	0.00	29.625 
11:10	59.2	59.2	59.2	75	51.3	4	11	270	0.00	29.625 
11:15	59.0	59.0	59.0	75	51.1	4	9	248	0.00	29.627 
11:20	59.5	59.5	59.5	74	51.2	3	6	270	0.00	29.627 
11:25	59.5	59.5	59.5	74	51.2	4	9	270	0.00	29.627 
11:30	59.5	59.5	59.5	74	51.2	3	7	270	0.00	29.639 
11:35	59.8	59.8	59.8	74	51.5	3	6	270	0.00	29.639 
11:40	59.9	59.9	59.9	74	51.6	4	10	270	0.00	29.639 
11:45	60.1	60.1	60.1	74	51.8	3	6	270	0.00	29.639 
11:50	60.4	60.4	60.4	73	51.7	2	4	270	0.00	29.639 
11:55	60.5	60.5	60.5	73	51.8	3	7	248	0.00	29.639 
12:00	60.5	60.5	60.5	73	51.8	3	9	270	0.00	29.628 
12:05	60.9	60.9	60.9	73	52.2	2	6	270	0.00	29.628 
12:10	60.9	60.9	60.9	72	51.8	3	7	270	0.00	29.628 
12:15	60.9	60.9	60.9	71	51.4	4	7	248	0.00	29.625 
12:20	61.0	61.0	61.0	72	51.9	3	9	270	0.00	29.625 
12:25	61.5	61.5	61.5	72	52.4	2	7	270	0.00	29.625 
12:30	61.8	61.8	61.8	70	51.9	2	10	292	0.00	29.622 
12:35	62.0	62.0	62.0	72	52.9	2	5	270	0.00	29.622 
12:40	62.3	62.3	62.3	70	52.4	3	9	270	0.00	29.622 
12:45	62.6	62.6	62.6	70	52.7	2	6	292	0.00	29.624 
12:50	62.7	62.7	62.7	70	52.8	3	6	248	0.00	29.624 
12:55	62.9	62.9	62.9	70	53.0	3	5	248	0.00	29.624 
13:00	63.1	63.1	63.1	69	52.8	2	6	270	0.00	29.622 
13:05	63.4	63.4	63.4	69	53.0	2	5	248	0.00	29.622 
13:10	63.9	63.9	63.9	69	53.5	2	4	248	0.00	29.622 
13:15	64.2	64.2	64.2	68	53.4	2	6	248	0.00	29.629 
13:20	64.5	64.5	64.5	66	52.9	2	7	248	0.00	29.629 
13:25	64.5	64.5	64.5	67	53.3	2	7	248	0.00	29.629 
13:30	64.5	64.5	64.5	67	53.3	2	6	248	0.00	29.631 
13:35	64.7	64.7	64.7	65	52.7	2	5	248	0.00	29.631 
13:40	64.8	64.8	64.8	66	53.2	2	6	270	0.00	29.631 
13:45	64.8	64.8	64.8	65	52.8	2	4	338	0.00	29.632 
13:50	65.0	65.0	65.0	65	52.9	2	5	248	0.00	29.632 
13:55	65.2	65.2	65.2	64	52.7	1	4	248	0.00	29.632 
14:00	65.5	65.5	65.5	65	53.4	2	4	248	0.00	29.635 
14:05	65.6	65.6	65.6	63	52.7	1	4	248	0.00	29.635 
14:10	65.6	65.6	65.6	65	53.5	1	3	292	0.00	29.635 
14:15	65.8	65.8	65.8	64	53.3	2	5	248	0.00	29.641 
14:20	65.6	65.6	65.6	64	53.1	2	3	270	0.00	29.641 
14:25	66.0	66.0	66.0	62	52.6	2	5	248	0.00	29.641 
14:30	65.8	65.8	65.8	62	52.4	2	5	292	0.00	29.640 
14:35	65.8	65.8	65.8	63	52.8	1	3	270	0.00	29.640 
14:40	65.8	65.8	65.8	62	52.4	1	2	270	0.00	29.640 
14:45	66.0	66.0	66.0	63	53.0	2	5	248	0.00	29.647 
14:50	66.1	66.1	66.1	62	52.7	3	9	248	0.00	29.647 
14:55	66.3	66.3	66.3	61	52.4	2	4	270	0.00	29.647 
15:00	66.4	66.4	66.4	60	52.1	1	4	248	0.00	29.652 
15:05	66.8	66.8	66.8	59	52.0	2	6	248	0.00	29.652 
15:10	66.9	66.9	66.9	60	52.6	2	6	248	0.00	29.652 
15:15	67.1	67.1	67.1	59	52.3	2	5	248	0.00	29.655 
15:20	67.1	67.1	67.1	58	51.8	2	6	248	0.00	29.655 
15:25	66.9	66.9	66.9	59	52.1	2	3	248	0.00	29.655 
15:30	66.9	66.9	66.9	58	51.6	1	3	270	0.00	29.655 
15:35	66.9	66.9	66.9	58	51.6	2	5	248	0.00	29.655 
15:40	67.1	67.1	67.1	58	51.8	3	8	248	0.00	29.655 
15:45	67.1	67.1	67.1	57	51.3	2	5	270	0.00	29.658 
15:50	67.3	67.3	67.3	57	51.5	2	4	248	0.00	29.658 
15:55	67.1	67.1	67.1	58	51.8	1	4	248	0.00	29.658 
16:00	66.9	66.9	66.9	58	51.6	2	5	248	0.00	29.665 
16:05	66.9	66.9	66.9	58	51.6	1	4	248	0.00	29.665 
16:10	66.8	66.8	66.8	59	52.0	1	6	248	0.00	29.665 
16:15	66.6	66.6	66.6	58	51.4	1	3	248	0.00	29.673 
16:20	66.3	66.3	66.3	59	51.5	2	5	248	0.00	29.673 
16:25	66.1	66.1	66.1	59	51.3	2	5	248	0.00	29.673 
16:30	66.0	66.0	66.0	60	51.7	1	3	248	0.00	29.684 
16:35	65.6	65.6	65.6	60	51.3	1	2	248	0.00	29.684 
16:40	65.5	65.5	65.5	61	51.7	1	2	248	0.00	29.684 
16:45	65.2	65.2	65.2	61	51.4	1	4	248	0.00	29.692 
16:50	65.0	65.0	65.0	62	51.7	1	3	248	0.00	29.692 
16:55	64.8	64.8	64.8	62	51.5	1	2	248	0.00	29.692 
17:00	64.7	64.7	64.7	62	51.4	0	2	248	0.00	29.698 
17:05	64.3	64.3	64.3	63	51.4	0	1	248	0.00	29.698 
17:10	64.0	64.0	64.0	63	51.1	0	1	248	0.00	29.698 
17:15	63.7	63.7	63.7	64	51.3	0	1	248	0.00	29.702 
17:20	63.2	63.2	63.2	65	51.2	0	0	---	0.00	29.702 
17:25	62.7	62.7	62.7	65	50.8	0	1	248	0.00	29.702 
17:30	62.1	62.1	62.1	67	51.0	0	0	---	0.00	29.706 
17:35	61.6	61.6	61.6	68	50.9	0	0	---	0.00	29.706 
17:40	61.0	61.0	61.0	69	50.8	0	0	---	0.00	29.706 
17:45	60.4	60.4	60.4	70	50.6	0	0	---	0.00	29.718 
17:50	59.8	59.8	59.8	70	50.0	0	0	---	0.00	29.718 
17:55	59.2	59.2	59.2	72	50.2	0	0	---	0.00	29.718 
18:00	58.4	58.4	58.4	74	50.1	0	0	---	0.00	29.729 
18:05	58.0	58.0	58.0	75	50.1	0	0	---	0.00	29.729 
18:10	57.6	57.6	57.6	74	49.4	0	1	248	0.00	29.729 
18:15	58.4	58.4	58.4	71	49.0	0	1	248	0.00	29.736 
18:20	58.9	58.9	58.9	69	48.7	0	0	---	0.00	29.736 
18:25	59.0	59.0	59.0	68	48.5	0	0	---	0.00	29.736 
18:30	58.9	58.9	58.9	69	48.7	0	0	---	0.00	29.740 
18:35	58.4	58.4	58.4	69	48.3	0	0	---	0.00	29.740 
18:40	58.3	58.3	58.3	68	47.8	0	0	---	0.00	29.740 
18:45	58.3	58.3	58.3	67	47.4	0	1	248	0.00	29.754 
18:50	58.3	58.3	58.3	66	47.0	0	1	248	0.00	29.754 
18:55	58.3	58.3	58.3	65	46.6	0	2	248	0.00	29.754 
19:00	58.1	58.1	58.1	65	46.4	0	2	338	0.00	29.759 
19:05	58.0	58.0	58.0	66	46.7	0	0	---	0.00	29.759 
19:10	57.6	57.6	57.6	66	46.3	0	1	338	0.00	29.759 
19:15	57.3	57.3	57.3	65	45.6	0	1	338	0.00	29.770 
19:20	57.2	57.2	57.2	64	45.1	0	1	338	0.00	29.770 
19:25	57.0	57.0	57.0	63	44.5	0	1	338	0.00	29.770 
19:30	56.7	56.7	56.7	63	44.2	0	1	338	0.00	29.781 
19:35	56.5	56.5	56.5	63	44.1	0	0	---	0.00	29.781 
19:40	56.2	56.2	56.2	63	43.8	0	0	---	0.00	29.781 
19:45	55.9	55.9	55.9	64	43.9	0	1	338	0.00	29.786 
19:50	55.6	55.6	55.6	64	43.6	0	0	---	0.00	29.786 
19:55	55.4	55.4	55.4	64	43.4	0	1	338	0.00	29.786 
20:00	55.1	55.1	55.1	63	42.7	0	1	338	0.00	29.789 
20:05	55.0	55.0	55.0	63	42.6	0	1	338	0.00	29.789 
20:10	54.8	54.8	54.8	63	42.4	0	1	338	0.00	29.789 
20:15	54.7	54.7	54.7	62	41.9	0	1	338	0.00	29.800 
20:20	54.5	54.5	54.5	62	41.7	0	1	338	0.00	29.800 
20:25	54.4	54.4	54.4	62	41.7	0	1	338	0.00	29.800 
20:30	54.1	54.1	54.1	62	41.4	0	1	338	0.00	29.803 
20:35	53.9	53.9	53.9	62	41.2	0	1	338	0.00	29.803 
20:40	53.6	53.6	53.6	62	40.9	0	2	338	0.00	29.803 
20:45	53.5	53.5	53.5	63	41.2	0	1	338	0.00	29.803 
20:50	53.2	53.2	53.2	63	40.9	0	0	---	0.00	29.803 
20:55	52.8	52.8	52.8	64	41.0	0	1	338	0.00	29.803 
21:00	52.5	52.5	52.5	64	40.7	0	1	338	0.00	29.810 
21:05	52.2	52.2	52.2	64	40.4	0	0	---	0.00	29.810 
21:10	51.7	51.7	51.7	64	39.9	0	1	338	0.00	29.810 
21:15	51.6	51.6	51.6	64	39.8	0	1	338	0.00	29.815 
21:20	51.4	51.4	51.4	64	39.6	0	1	338	0.00	29.815 
21:25	51.3	51.3	51.3	64	39.5	0	1	338	0.00	29.815 
21:30	51.1	51.1	51.1	64	39.4	0	1	338	0.00	29.824 
21:35	51.0	51.0	51.0	64	39.3	0	1	338	0.00	29.824 
21:40	50.8	50.8	50.8	64	39.1	0	1	338	0.00	29.824 
21:45	50.7	50.7	50.7	65	39.4	0	1	338	0.00	29.827 
21:50	50.5	50.5	50.5	65	39.2	0	2	338	0.00	29.827 
21:55	50.5	50.5	50.5	64	38.8	0	1	338	0.00	29.827 
22:00	50.5	50.5	50.5	64	38.8	0	1	338	0.00	29.835 
22:05	50.4	50.4	50.4	64	38.7	0	1	338	0.00	29.835 
22:10	50.2	50.2	50.2	64	38.5	0	1	338	0.00	29.835 
22:15	50.1	50.1	50.1	64	38.4	0	1	338	0.00	29.844 
22:20	49.9	49.9	49.9	64	38.2	0	1	338	0.00	29.844 
22:25	49.8	49.8	49.8	64	38.1	0	0	---	0.00	29.844 
22:30	49.6	49.6	49.6	64	37.9	0	0	---	0.00	29.842 
22:35	49.4	49.4	49.4	65	38.1	0	0	---	0.00	29.842 
22:40	49.2	49.2	49.2	65	37.9	0	0	---	0.00	29.842 
22:45	49.1	49.1	49.1	65	37.8	0	0	---	0.00	29.839 
22:50	48.8	48.8	48.8	65	37.6	0	0	---	0.00	29.839 
22:55	48.6	48.6	48.6	66	37.8	0	0	---	0.00	29.839 
23:00	48.5	48.5	48.5	66	37.7	0	0	---	0.00	29.843 
23:05	48.2	48.2	48.2	66	37.4	0	1	338	0.00	29.843 
23:10	48.2	48.2	48.2	66	37.4	0	0	---	0.00	29.843 
23:15	48.0	48.0	48.0	67	37.6	0	0	---	0.00	29.847 
23:20	47.9	47.9	47.9	67	37.5	0	0	---	0.00	29.847 
23:25	47.7	47.7	47.7	68	37.7	0	0	---	0.00	29.847 
23:30	47.6	47.6	47.6	68	37.6	0	0	---	0.00	29.846 
23:35	47.6	47.6	47.6	68	37.6	0	1	338	0.00	29.846 
23:40	47.4	47.4	47.4	68	37.4	0	1	338	0.00	29.846 
23:45	47.4	47.4	47.4	69	37.7	0	0	---	0.00	29.849 
23:50	47.1	47.1	47.1	69	37.5	0	0	---	0.00	29.849 
23:55	46.8	46.8	46.8	69	37.2	0	0	---	0.00	29.849 

CoCoRaHS
IN-AL-39
A2 Web Hosting
Creative Commons License
GoDaddy
Look for:

loaded 2017-10-17 00:39:38 • last modified 2010-11-18 10:43:29
Privacy PolicyDisclaimer
• wx.awcolley.com is powered by PmWiki v.2002016 •
• all content (unless otherwise noted) © 2017 A W Colley